Home > Products > Valid Products > TAF

000
FTUS43 KLBF 252300
TAFVTN
TAF
KVTN 252320Z 2600/2624 12008KT P6SM SKC
     FM260800 16008KT 3SM BR OVC010
     FM261600 25009KT P6SM SCT250
     FM261800 27013G20KT P6SM SCT250=



000
FTUS43 KLBF 252300
TAFLBF
TAF
KLBF 252320Z 2600/2624 12007KT P6SM SKC
     FM260400 12006KT 4SM BR SKC
     FM260800 12005KT 1SM BR OVC005
     FM261400 VRB04KT 3SM BR BKN010
     FM261600 29006KT P6SM SCT250=



000
FTUS43 KLBF 251700
TAFVTN
TAF
KVTN 251725Z 2518/2618 16008KT P6SM SKC
     FM260800 14008KT 3SM BR OVC010
     FM261500 20009KT P6SM BKN010=



000
FTUS43 KLBF 251700
TAFLBF
TAF
KLBF 251725Z 2518/2618 13007KT P6SM SKC
     FM260600 12005KT 1SM BR OVC005
     FM261400 VRB04KT 3SM BR BKN010=



000
FTUS43 KLBF 251100
TAFVTN
TAF
KVTN 251120Z 2512/2612 VRB06KT P6SM SKC
     FM251600 16008KT P6SM SKC=



000
FTUS43 KLBF 251100
TAFLBF
TAF
KLBF 251120Z 2512/2612 VRB06KT P6SM SKC
     FM251800 15008KT P6SM SKC
     FM260100 12008KT P6SM SKC=



000
FTUS43 KLBF 251100
TAFVTN
TAF
KVTN 251120Z 2512/2612 VRB06KT P6SM SKC
     FM251600 16008KT P6SM SKC=



000
FTUS43 KLBF 251100
TAFLBF
TAF
KLBF 251120Z 2512/2612 VRB06KT P6SM SKC
     FM251800 15008KT P6SM SKC
     FM260100 12008KT P6SM SKC=



000
FTUS43 KLBF 250500
TAFLBF
TAF
KLBF 250524Z 2506/2606 VRB03KT P6SM SKC
     FM251700 16006KT P6SM SKC=



000
FTUS43 KLBF 250500
TAFVTN
TAF
KVTN 250524Z 2506/2606 VRB03KT P6SM SKC
     FM251700 16006KT P6SM SKC=



000
FTUS43 KLBF 242300
TAFLBF
TAF
KLBF 242320Z 2500/2524 VRB03KT P6SM SKC
     FM251700 16006KT P6SM SKC=



000
FTUS43 KLBF 242300
TAFVTN
TAF
KVTN 242320Z 2500/2524 VRB03KT P6SM FEW250
     FM251700 16006KT P6SM SKC=



000
FTUS43 KLBF 241700
TAFLBF
TAF
KLBF 241720Z 2418/2518 29009KT P6SM SCT200
     FM250000 VRB03KT P6SM SKC
     FM251700 17013G20KT P6SM SKC=



000
FTUS43 KLBF 241700
TAFVTN
TAF
KVTN 241720Z 2418/2518 28008KT P6SM SCT200
     FM242300 VRB03KT P6SM SKC
     FM251700 16012G20KT P6SM SKC=



000
FTUS43 KLBF 241100
TAFVTN
TAF
KVTN 241121Z 2412/2512 25006KT P6SM BKN200
     FM241800 30009KT P6SM BKN200
     FM242300 35006KT P6SM SCT200
     FM250300 VRB06KT P6SM SKC=



000
FTUS43 KLBF 241100
TAFLBF
TAF
KLBF 241121Z 2412/2512 VRB05KT P6SM BKN200
     FM241800 30009KT P6SM SCT200
     FM250000 VRB06KT P6SM SKC=



000
FTUS43 KLBF 240500
TAFLBF
TAF
KLBF 240522Z 2406/2506 VRB05KT P6SM BKN150
     FM241600 29009KT P6SM BKN150
     FM250000 VRB04KT P6SM SKC=



000
FTUS43 KLBF 240500
TAFVTN
TAF
KVTN 240522Z 2406/2506 25006KT P6SM BKN200
     FM241500 29009KT P6SM OVC200
     FM242300 VRB06KT P6SM SKC=



000
FTUS43 KLBF 232300
TAFVTN
TAF
KVTN 232320Z 2400/2424 VRB04KT P6SM BKN200
     FM241500 26008KT P6SM SCT200=



000
FTUS43 KLBF 232300
TAFLBF
TAF
KLBF 232320Z 2400/2424 VRB03KT P6SM BKN200
     FM241600 29009KT P6SM SKC=



000
FTUS43 KLBF 231700
TAFVTN
TAF
KVTN 231728Z 2318/2418 22012KT P6SM SCT250
     FM240000 22006KT P6SM SCT250
     FM241500 26008KT P6SM SKC=



000
FTUS43 KLBF 231700
TAFLBF
TAF
KLBF 231728Z 2318/2418 23008KT P6SM BKN250
     FM240100 VRB06KT P6SM SCT250=



000
FTUS43 KLBF 231400 AAA
TAFLBF
TAF AMD
KLBF 231405Z 2314/2412 VRB02KT P6SM SKC
     FM231700 24008KT P6SM SKC
     FM240100 VRB06KT P6SM SCT250=



000
FTUS43 KLBF 231100
TAFVTN
TAF
KVTN 231127Z 2312/2412 VRB06KT P6SM SKC
     FM231700 22012KT P6SM SKC
     FM240000 21006KT P6SM SCT250=



000
FTUS43 KLBF 231100
TAFLBF
TAF
KLBF 231127Z 2312/2412 33002KT 1/2SM FG VV001
      TEMPO 2312/2316 2SM BR SKC
     FM231700 24008KT P6SM SKC
     FM240100 VRB06KT P6SM SCT250=



000
FTUS43 KLBF 231000 AAA
TAFLBF
TAF AMD
KLBF 231011Z 2310/2406 33002KT 2SM BR SKC
      TEMPO 2310/2314 1/4SM FG VV001
     FM231800 22008KT P6SM SKC
     FM240000 VRB05KT P6SM SCT200=



000
FTUS43 KLBF 230600 AAB
TAFLBF
TAF AMD
KLBF 230601Z 2306/2406 VRB02KT 3SM BR FEW120
      TEMPO 2306/2310 1/4SM FG VV001
     FM231000 33002KT 2SM BR SKC
      TEMPO 2310/2314 1/4SM FG VV001
     FM231800 22008KT P6SM SKC
     FM240000 VRB05KT P6SM SCT200=



000
FTUS43 KLBF 230500 AAA
TAFLBF
TAF AMD
KLBF 230559Z 2306/2406 VRB02KT 5SM BR FEW120
      TEMPO 2306/2310 1/2SM FG VV002
     FM231000 33002KT 3SM BR SKC
      TEMPO 2310/2314 1/2SM FG VV002
     FM231800 22008KT P6SM SKC
     FM240000 VRB05KT P6SM SCT200=



000
FTUS43 KLBF 230500
TAFLBF
TAF
KLBF 230520Z 2306/2406 VRB02KT 5SM BR FEW120
      TEMPO 2306/2310 1/2SM FG VV002
     FM231000 33002KT 3SM BR SKC
      TEMPO 2310/2314 1/2SM FG
     FM231800 22008KT P6SM SKC
     FM240000 VRB05KT P6SM SCT200=



000
FTUS43 KLBF 230500
TAFVTN
TAF
KVTN 230520Z 2306/2406 VRB02KT P6SM SKC
     FM231600 22008KT P6SM SKC
     FM240000 23004KT P6SM SCT200=



000
FTUS43 KLBF 230400 AAB
TAFLBF
TAF AMD
KLBF 230419Z 2304/2324 VRB02KT P6SM FEW120
      TEMPO 2304/2306 1/2SM FG
     FM231800 22008KT P6SM SKC=



000
FTUS43 KLBF 230400 AAB
TAFLBF
TAF AMD
KLBF 230419Z 2304/2324 VRB02KT P6SM FEW120
      TEMPO 2304/2306 1/2SM FG
     FM231800 22008KT P6SM SKC=



000
FTUS43 KLBF 230400 AAA
TAFLBF
TAF AMD
KLBF 230411Z 2304/2324 VRB02KT P6SM FEW120
      TEMPO 2304/2306 1 1/2SM BR
     FM231800 22008KT P6SM SKC=



    US Dept of Commerce
    National Oceanic and Atmospheric Administration
    National Weather Service
    1325 East West Highway
    Silver Spring, MD 20910
    Page Author: NWS Internet Services Team
Disclaimer
Information Quality
Credits
Glossary
Privacy Policy
Freedom of Information Act (FOIA)
About Us
Career Opportunities